Time;durP1;ratioP1;P1;durP2;ratioP2;P2;SDS_P1;SDS_P2;PMS_P1;PMS_P2;Temp;Humidity;BMP_temperature;BMP_pressure;BME280_temperature;BME280_humidity;BME280_pressure;Samples;Min_cycle;Max_cycle;Signal;HPM_P1;HPM_P2
2023/04/14 00:01:36;;;;;;;33.60;19.20;;;;;;;11.22;75.40;98176.30;108502;1302;22923;-40
2023/04/14 00:04:01;;;;;;;34.30;19.40;;;;;;;11.20;75.25;98175.94;108500;1302;22173;-39
2023/04/14 00:06:27;;;;;;;31.00;18.60;;;;;;;11.20;75.54;98177.34;108511;1302;22411;-41
2023/04/14 00:08:52;;;;;;;32.20;18.20;;;;;;;11.20;75.10;98176.52;108476;1302;23020;-41
2023/04/14 00:11:17;;;;;;;36.40;18.30;;;;;;;11.16;75.74;98178.36;108486;1302;22454;-41
2023/04/14 00:13:43;;;;;;;28.50;18.20;;;;;;;11.15;76.05;98175.79;108491;1302;22210;-41
2023/04/14 00:16:10;;;;;;;35.70;18.10;;;;;;;11.14;76.46;98177.94;108508;1302;22454;-40
2023/04/14 00:18:35;;;;;;;35.20;19.00;;;;;;;11.13;76.36;98182.73;108478;1302;22280;-40
2023/04/14 00:21:01;;;;;;;34.20;18.60;;;;;;;11.17;74.95;98191.59;108481;1302;22223;-40
2023/04/14 00:23:27;;;;;;;32.10;18.60;;;;;;;11.14;76.53;98193.20;108509;1302;23389;-40
2023/04/14 00:25:52;;;;;;;30.70;18.00;;;;;;;11.13;76.59;98197.33;108510;1302;22974;-40
2023/04/14 00:28:17;;;;;;;32.90;18.70;;;;;;;11.09;76.91;98199.89;108483;1302;22228;-41
2023/04/14 00:30:42;;;;;;;36.50;18.70;;;;;;;11.04;77.94;98197.80;108483;1302;22230;-39
2023/04/14 00:33:08;;;;;;;34.10;18.50;;;;;;;11.01;78.30;98197.55;108489;1302;22467;-40
2023/04/14 00:35:33;;;;;;;32.60;18.00;;;;;;;10.97;78.80;98194.09;108491;1302;22404;-41
2023/04/14 00:37:58;;;;;;;29.90;18.30;;;;;;;10.94;79.44;98191.17;108495;1302;22393;-49
2023/04/14 00:40:24;;;;;;;29.60;18.70;;;;;;;10.95;79.21;98188.52;108490;1302;22477;-40
2023/04/14 00:42:49;;;;;;;31.30;18.90;;;;;;;10.91;79.91;98188.56;108491;1302;23142;-41
2023/04/14 00:45:15;;;;;;;29.60;18.90;;;;;;;10.88;80.07;98185.48;108482;1302;22206;-41
2023/04/14 00:47:45;;;;;;;32.00;20.10;;;;;;;10.86;80.37;98180.09;108492;1302;22512;-40
2023/04/14 00:50:12;;;;;;;32.00;19.40;;;;;;;10.82;81.36;98175.77;108485;1302;22243;-40
2023/04/14 00:52:38;;;;;;;36.40;20.20;;;;;;;10.80;81.51;98172.27;108492;1302;22288;-40
2023/04/14 00:55:05;;;;;;;31.50;19.50;;;;;;;10.76;81.66;98171.15;108482;1302;22434;-41
2023/04/14 00:57:30;;;;;;;31.00;19.40;;;;;;;10.75;81.76;98172.41;108462;1302;22211;-41
2023/04/14 01:00:00;;;;;;;29.30;18.30;;;;;;;10.75;81.70;98173.45;108485;1302;22250;-40
2023/04/14 01:02:25;;;;;;;36.00;19.60;;;;;;;10.73;82.00;98167.11;108479;1302;22517;-40
2023/04/14 01:04:51;;;;;;;32.00;19.00;;;;;;;10.70;82.22;98165.56;108478;1302;22504;-41
2023/04/14 01:07:21;;;;;;;32.70;19.20;;;;;;;10.68;82.76;98161.91;108481;1302;22401;-40
2023/04/14 01:09:46;;;;;;;35.80;19.90;;;;;;;10.68;83.09;98160.17;108503;1301;22204;-41
2023/04/14 01:12:32;;;;;;;29.10;19.40;;;;;;;10.65;83.49;98152.44;108464;1302;22217;-44
2023/04/14 01:15:09;;;;;;;35.20;19.10;;;;;;;10.61;84.12;98143.46;108487;1301;22390;-40
2023/04/14 01:18:05;;;;;;;29.70;19.70;;;;;;;10.60;83.81;98140.98;108491;1301;23234;-38
2023/04/14 01:20:39;;;;;;;34.30;20.20;;;;;;;10.57;83.80;98135.02;108473;1302;22251;-40
2023/04/14 01:23:31;;;;;;;32.00;20.10;;;;;;;10.59;82.82;98132.63;108502;1302;23102;-43
2023/04/14 01:26:18;;;;;;;33.80;20.00;;;;;;;10.57;83.62;98132.73;108498;1302;22907;-40
2023/04/14 01:29:02;;;;;;;;;;;;;;;10.56;83.75;98130.02;108193;1302;22417;-41
2023/04/14 01:31:30;;;;;;;32.00;20.40;;;;;;;10.54;82.99;98130.11;108503;1302;22578;-45
2023/04/14 01:34:05;;;;;;;30.80;20.70;;;;;;;10.53;83.03;98128.47;108503;1302;22237;-41
2023/04/14 01:36:39;;;;;;;32.90;20.30;;;;;;;10.51;83.37;98124.61;108488;1302;22209;-39
2023/04/14 01:39:07;;;;;;;29.30;19.20;;;;;;;10.51;83.21;98128.25;108492;1302;22201;-40
2023/04/14 01:41:33;;;;;;;29.20;18.80;;;;;;;10.53;82.67;98130.74;108489;1302;22369;-40
2023/04/14 01:44:02;;;;;;;34.90;20.20;;;;;;;10.55;82.64;98132.86;108467;1302;22313;-41
2023/04/14 01:46:27;;;;;;;37.30;20.60;;;;;;;10.57;82.81;98131.36;108491;1302;23272;-41
2023/04/14 01:48:54;;;;;;;35.80;19.90;;;;;;;10.60;82.59;98132.73;108463;1302;22897;-41
2023/04/14 01:51:22;;;;;;;35.10;19.80;;;;;;;10.61;82.61;98128.09;108502;1302;22494;-41
2023/04/14 01:53:49;;;;;;;38.80;20.70;;;;;;;10.64;82.48;98130.30;108485;1302;22244;-41
2023/04/14 01:56:16;;;;;;;42.70;20.40;;;;;;;10.69;81.29;98129.59;108491;1302;22237;-40
2023/04/14 01:58:42;;;;;;;35.00;20.60;;;;;;;10.74;80.39;98128.33;108491;1302;22406;-38
2023/04/14 02:01:08;;;;;;;35.90;21.00;;;;;;;10.79;79.01;98126.23;108493;1302;22239;-39
2023/04/14 02:03:36;;;;;;;41.30;21.30;;;;;;;10.81;78.08;98129.36;108482;1302;23251;-41
2023/04/14 02:06:03;;;;;;;35.00;20.80;;;;;;;10.83;77.37;98134.34;108483;1302;22228;-40
2023/04/14 02:08:31;;;;;;;39.90;21.30;;;;;;;10.83;77.12;98134.01;108486;1302;22311;-39
2023/04/14 02:10:59;;;;;;;37.70;21.50;;;;;;;10.84;76.46;98132.51;108494;1302;22385;-40
2023/04/14 02:13:27;;;;;;;37.90;20.30;;;;;;;10.84;75.73;98133.35;108483;1302;22234;-41
2023/04/14 02:15:52;;;;;;;36.30;20.50;;;;;;;10.83;75.54;98128.70;108483;1301;22226;-42
2023/04/14 02:18:20;;;;;;;39.70;21.40;;;;;;;10.84;75.38;98128.81;108505;1302;22486;-41
2023/04/14 02:20:47;;;;;;;38.70;21.20;;;;;;;10.85;75.07;98129.61;108481;1302;22237;-42
2023/04/14 02:23:13;;;;;;;34.30;20.20;;;;;;;10.86;74.86;98134.11;108509;1302;22415;-40
2023/04/14 02:25:44;;;;;;;35.20;20.90;;;;;;;10.84;74.40;98137.07;108484;1302;22230;-41
2023/04/14 02:28:17;;;;;;;32.30;21.10;;;;;;;10.83;74.54;98140.27;108481;1302;22977;-40
2023/04/14 02:30:45;;;;;;;38.40;21.40;;;;;;;10.84;74.49;98140.41;108492;1302;23065;-40
2023/04/14 02:33:16;;;;;;;34.90;21.00;;;;;;;10.83;74.65;98136.08;108495;1302;22924;-40
2023/04/14 02:35:59;;;;;;;40.40;21.30;;;;;;;10.83;74.77;98138.55;108480;1302;22218;-42
2023/04/14 02:38:46;;;;;;;37.70;20.40;;;;;;;10.83;74.88;98138.19;108501;1302;22323;-40
2023/04/14 02:44:11;;;;;;;35.20;19.00;;;;;;;10.89;73.79;98134.70;107420;1302;545511;-40
2023/04/14 02:46:40;;;;;;;40.10;19.80;;;;;;;10.87;73.50;98130.84;107033;1316;22409;-40
2023/04/14 02:49:09;;;;;;;38.30;18.80;;;;;;;10.90;73.27;98129.03;107049;1316;23197;-40
2023/04/14 02:51:36;;;;;;;35.50;18.10;;;;;;;10.93;72.29;98129.52;107033;1316;22412;-40
2023/04/14 02:54:04;;;;;;;31.80;17.00;;;;;;;10.95;71.61;98126.56;107030;1316;23110;-42
2023/04/14 02:56:29;;;;;;;35.20;18.40;;;;;;;10.98;71.51;98125.12;106977;1314;143132;-41
2023/04/14 02:58:56;;;;;;;32.10;18.10;;;;;;;11.01;71.34;98126.52;107183;1314;22779;-42
2023/04/14 03:01:22;;;;;;;35.50;17.50;;;;;;;11.04;71.70;98126.77;107198;1314;22375;-41
2023/04/14 03:03:48;;;;;;;33.50;16.90;;;;;;;11.06;70.85;98126.05;107193;1314;22265;-41
2023/04/14 03:06:15;;;;;;;35.30;17.50;;;;;;;11.07;69.94;98132.30;107239;1314;22314;-41
2023/04/14 03:08:42;;;;;;;33.20;17.40;;;;;;;11.12;69.77;98136.18;107210;1314;22274;-41
2023/04/14 03:11:08;;;;;;;38.80;18.30;;;;;;;11.15;69.10;98131.23;107196;1314;22261;-40
2023/04/14 03:13:34;;;;;;;35.70;16.90;;;;;;;11.18;68.86;98130.85;107177;1314;22345;-40
2023/04/14 03:16:02;;;;;;;30.90;16.60;;;;;;;11.16;67.92;98127.84;107199;1314;22285;-41
2023/04/14 03:18:30;;;;;;;30.40;17.40;;;;;;;11.15;68.43;98131.77;107218;1314;22250;-41
2023/04/14 03:20:59;;;;;;;28.80;16.70;;;;;;;11.18;68.49;98131.89;107200;1314;22265;-41
2023/04/14 03:23:24;;;;;;;34.90;17.60;;;;;;;11.19;68.24;98129.38;107538;1306;22265;-40
2023/04/14 03:25:50;;;;;;;31.90;17.20;;;;;;;11.19;67.50;98133.20;108019;1306;23331;-42
2023/04/14 03:28:19;;;;;;;32.30;17.90;;;;;;;11.18;67.33;98134.32;108026;1306;22518;-41
2023/04/14 03:30:48;;;;;;;33.90;17.50;;;;;;;11.17;67.15;98138.80;108031;1306;22241;-39
2023/04/14 03:33:18;;;;;;;28.10;17.30;;;;;;;11.17;67.22;98137.05;108044;1306;22291;-40
2023/04/14 03:35:45;;;;;;;28.70;16.50;;;;;;;11.17;67.63;98142.64;108032;1306;22217;-40
2023/04/14 03:38:13;;;;;;;31.80;17.30;;;;;;;11.16;67.74;98135.72;108042;1306;22320;-39
2023/04/14 03:40:43;;;;;;;31.40;15.90;;;;;;;11.13;67.59;98123.83;108045;1306;22296;-40
2023/04/14 03:43:11;;;;;;;30.00;15.80;;;;;;;11.11;67.25;98117.45;108041;1306;22543;-39
2023/04/14 03:45:39;;;;;;;26.30;15.90;;;;;;;11.08;67.13;98114.54;108051;1306;22202;-40
2023/04/14 03:48:05;;;;;;;;;;;;;;;11.05;66.77;98110.39;108061;1306;22419;-41
2023/04/14 03:50:41;;;;;;;25.70;15.20;;;;;;;11.03;66.48;98107.91;108033;1306;22480;-41
2023/04/14 03:53:13;;;;;;;26.40;15.50;;;;;;;11.00;66.05;98119.94;108030;1306;22451;-40
2023/04/14 03:55:42;;;;;;;23.40;14.30;;;;;;;10.98;66.10;98123.71;108025;1306;22221;-41
2023/04/14 03:58:09;;;;;;;30.20;15.70;;;;;;;10.96;65.78;98121.59;108029;1306;22296;-43
2023/04/14 04:00:37;;;;;;;30.10;15.40;;;;;;;10.95;65.85;98119.92;108024;1306;22881;-40
2023/04/14 04:03:03;;;;;;;;;;;;;;;10.92;65.65;98118.39;108043;1306;22567;-40
2023/04/14 04:05:29;;;;;;;28.00;15.50;;;;;;;10.91;65.93;98116.21;108028;1306;22308;-40
2023/04/14 04:08:01;;;;;;;28.50;15.80;;;;;;;10.91;65.47;98117.98;108026;1306;23005;-42
2023/04/14 04:10:30;;;;;;;32.50;15.20;;;;;;;10.91;65.50;98118.27;108016;1306;22435;-40
2023/04/14 04:12:57;;;;;;;26.70;14.50;;;;;;;10.90;65.26;98120.45;108026;1306;22231;-39
2023/04/14 04:15:23;;;;;;;28.10;15.10;;;;;;;10.89;65.40;98124.58;108057;1306;22524;-40
2023/04/14 04:17:50;;;;;;;25.80;15.20;;;;;;;10.90;65.47;98126.59;108025;1306;22200;-41
2023/04/14 04:20:17;;;;;;;28.40;15.50;;;;;;;10.91;65.84;98127.05;108030;1306;22909;-40
2023/04/14 04:22:45;;;;;;;27.80;16.20;;;;;;;10.94;65.64;98124.40;108021;1306;22222;-40
2023/04/14 04:25:11;;;;;;;30.20;15.00;;;;;;;10.94;65.72;98119.44;108045;1306;22255;-39
2023/04/14 04:27:37;;;;;;;24.00;14.60;;;;;;;10.96;66.20;98118.98;108019;1306;22271;-40
2023/04/14 04:30:06;;;;;;;22.70;14.20;;;;;;;10.98;66.13;98120.38;108026;1306;23055;-40
2023/04/14 04:32:31;;;;;;;89.30;17.00;;;;;;;11.00;66.23;98118.00;108039;1306;23117;-40
2023/04/14 04:34:57;;;;;;;32.10;15.30;;;;;;;10.99;66.56;98120.02;108033;1306;22225;-43
2023/04/14 04:37:27;;;;;;;22.90;13.60;;;;;;;10.95;67.14;98119.91;108045;1306;22311;-41
2023/04/14 04:39:55;;;;;;;22.10;13.50;;;;;;;10.97;67.23;98118.02;108037;1306;22901;-41
2023/04/14 04:42:21;;;;;;;22.10;13.70;;;;;;;10.99;67.86;98119.25;108011;1303;22218;-43
2023/04/14 04:44:46;;;;;;;24.10;13.90;;;;;;;11.02;68.25;98120.61;108019;1306;22254;-41
2023/04/14 04:47:12;;;;;;;22.50;13.40;;;;;;;11.05;67.94;98118.82;108028;1306;22372;-41
2023/04/14 04:49:37;;;;;;;22.00;14.20;;;;;;;11.04;68.85;98117.82;108028;1306;22409;-42
2023/04/14 04:52:03;;;;;;;23.10;13.90;;;;;;;11.03;69.27;98124.44;108025;1306;22518;-41
2023/04/14 04:54:29;;;;;;;26.10;14.60;;;;;;;11.05;69.79;98123.36;108041;1306;22224;-39
2023/04/14 04:56:56;;;;;;;22.50;13.90;;;;;;;11.07;70.41;98122.52;108020;1306;22384;-41
2023/04/14 04:59:21;;;;;;;22.50;13.80;;;;;;;11.11;70.64;98117.86;108029;1306;22403;-38
2023/04/14 05:01:47;;;;;;;21.30;13.60;;;;;;;11.16;70.43;98123.27;108007;1306;22393;-39
2023/04/14 05:04:12;;;;;;;20.50;12.50;;;;;;;11.21;70.76;98127.80;108034;1306;22138;-40
2023/04/14 05:06:37;;;;;;;21.70;13.90;;;;;;;11.25;70.90;98127.83;108033;1306;22388;-40
2023/04/14 05:09:03;;;;;;;26.50;14.00;;;;;;;11.27;71.05;98130.15;108034;1306;22316;-41
2023/04/14 05:11:30;;;;;;;30.70;14.20;;;;;;;11.30;71.34;98130.08;108027;1306;23158;-40
2023/04/14 05:13:55;;;;;;;21.60;12.60;;;;;;;11.36;70.99;98133.96;108013;1306;22221;-39
2023/04/14 05:16:20;;;;;;;22.30;12.40;;;;;;;11.40;71.39;98138.75;108013;1306;22419;-39
2023/04/14 05:18:45;;;;;;;25.20;12.70;;;;;;;11.45;71.39;98145.27;108023;1306;23103;-39
2023/04/14 05:21:12;;;;;;;20.50;13.00;;;;;;;11.50;71.50;98149.20;108001;1306;22258;-38
2023/04/14 05:23:39;;;;;;;19.20;12.20;;;;;;;11.56;70.85;98156.52;108001;1306;22221;-40
2023/04/14 05:26:05;;;;;;;22.10;12.60;;;;;;;11.55;71.30;98157.98;108030;1306;22405;-40
2023/04/14 05:28:31;;;;;;;22.00;12.60;;;;;;;11.56;71.32;98162.64;108023;1306;22285;-39
2023/04/14 05:30:56;;;;;;;19.00;12.40;;;;;;;11.60;71.39;98162.73;108019;1306;23364;-40
2023/04/14 05:33:22;;;;;;;23.90;13.40;;;;;;;11.62;71.30;98162.02;107999;1306;22229;-40
2023/04/14 05:35:49;;;;;;;21.50;12.90;;;;;;;11.63;70.87;98159.63;108032;1306;22221;-39
2023/04/14 05:38:15;;;;;;;;;;;;;;;11.63;71.38;98159.09;108043;1306;22431;-39
2023/04/14 05:40:41;;;;;;;34.70;13.20;;;;;;;11.63;71.75;98159.31;108029;1306;22252;-39
2023/04/14 05:43:06;;;;;;;19.40;12.70;;;;;;;11.67;71.73;98162.19;108024;1306;22381;-41
2023/04/14 05:45:32;;;;;;;27.50;13.00;;;;;;;11.70;71.75;98164.68;108044;1306;22244;-40
2023/04/14 05:47:57;;;;;;;26.10;13.40;;;;;;;11.73;71.76;98166.56;107999;1306;22480;-41
2023/04/14 05:50:22;;;;;;;21.80;12.30;;;;;;;11.76;71.51;98167.60;108003;1306;22814;-41
2023/04/14 05:52:48;;;;;;;21.30;13.10;;;;;;;11.78;71.54;98167.63;108012;1306;23323;-41
2023/04/14 05:55:14;;;;;;;20.70;13.10;;;;;;;11.78;72.41;98163.93;108035;1306;22730;-40
2023/04/14 05:57:40;;;;;;;24.30;12.60;;;;;;;11.79;72.46;98163.35;108038;1306;22694;-41
2023/04/14 06:00:06;;;;;;;27.30;12.10;;;;;;;11.80;72.72;98167.12;108029;1306;22267;-40
2023/04/14 06:02:32;;;;;;;21.50;12.00;;;;;;;11.82;72.95;98166.05;107996;1306;22182;-40
2023/04/14 06:04:58;;;;;;;22.20;12.50;;;;;;;11.89;72.49;98165.48;108016;1306;23168;-41
2023/04/14 06:07:24;;;;;;;17.90;11.20;;;;;;;11.99;72.58;98162.98;108036;1306;22400;-40
2023/04/14 06:09:49;;;;;;;18.70;11.50;;;;;;;12.10;72.28;98162.81;107998;1306;22221;-42
2023/04/14 06:12:14;;;;;;;21.10;11.40;;;;;;;12.23;71.87;98164.44;107992;1306;22231;-40
2023/04/14 06:14:40;;;;;;;22.00;10.80;;;;;;;12.33;71.66;98167.34;107995;1306;22418;-41
2023/04/14 06:17:05;;;;;;;25.50;11.90;;;;;;;12.40;71.18;98165.42;108008;1306;22344;-45
2023/04/14 06:19:30;;;;;;;20.00;12.00;;;;;;;12.44;70.85;98160.34;108016;1306;22233;-40
2023/04/14 06:21:56;;;;;;;26.80;11.80;;;;;;;12.46;70.66;98156.23;108012;1306;22383;-39
2023/04/14 06:24:21;;;;;;;20.10;11.20;;;;;;;12.44;70.26;98149.91;108039;1306;22309;-40
2023/04/14 06:26:46;;;;;;;21.40;11.20;;;;;;;12.40;70.38;98147.24;108016;1306;22226;-41
2023/04/14 06:29:12;;;;;;;21.50;12.00;;;;;;;12.38;70.26;98149.91;108021;1306;22925;-40
2023/04/14 06:31:37;;;;;;;25.30;11.60;;;;;;;12.37;70.29;98147.22;108030;1306;23081;-41
2023/04/14 06:34:02;;;;;;;23.30;12.20;;;;;;;12.36;69.95;98147.95;108027;1306;23196;-40
2023/04/14 06:36:28;;;;;;;17.70;11.00;;;;;;;12.34;70.04;98147.98;108000;1306;22223;-42
2023/04/14 06:38:55;;;;;;;43.70;12.80;;;;;;;12.30;70.34;98148.29;107998;1306;23644;-42
2023/04/14 06:41:21;;;;;;;26.10;11.10;;;;;;;12.27;70.41;98149.84;107986;1306;22465;-42
2023/04/14 06:43:46;;;;;;;23.00;11.50;;;;;;;12.26;70.10;98144.67;108010;1306;22392;-41
2023/04/14 06:46:11;;;;;;;18.10;11.10;;;;;;;12.26;69.59;98145.35;108021;1306;22186;-41
2023/04/14 06:48:36;;;;;;;20.60;10.90;;;;;;;12.25;70.02;98141.58;107993;1306;24356;-41
2023/04/14 06:51:02;;;;;;;16.00;10.50;;;;;;;12.27;69.88;98142.83;108017;1306;22089;-41
2023/04/14 06:53:27;;;;;;;25.10;10.80;;;;;;;12.32;69.91;98141.73;108035;1306;22228;-40
2023/04/14 06:55:59;;;;;;;20.60;10.80;;;;;;;12.38;69.84;98138.45;108008;1306;22952;-40
2023/04/14 06:58:25;;;;;;;21.70;10.30;;;;;;;12.43;69.61;98135.59;108006;1306;22239;-40
2023/04/14 07:00:57;;;;;;;28.50;11.30;;;;;;;12.47;69.21;98132.60;108011;1306;22980;-40
2023/04/14 07:03:23;;;;;;;16.80;10.30;;;;;;;12.53;68.93;98129.14;108008;1306;22314;-41
2023/04/14 07:05:49;;;;;;;34.10;10.50;;;;;;;12.62;68.63;98128.27;108017;1306;22249;-40
2023/04/14 07:08:15;;;;;;;22.00;10.40;;;;;;;12.70;68.27;98129.53;108001;1306;22360;-40
2023/04/14 07:10:40;;;;;;;23.10;9.70;;;;;;;12.82;68.19;98130.08;108038;1306;22435;-42
2023/04/14 07:13:06;;;;;;;22.10;9.60;;;;;;;12.94;67.67;98129.66;108009;1306;22212;-41
2023/04/14 07:15:31;;;;;;;15.70;9.30;;;;;;;13.04;66.38;98128.97;108024;1306;22903;-41
2023/04/14 07:17:56;;;;;;;17.10;9.60;;;;;;;13.16;65.54;98134.66;108010;1306;22251;-40
2023/04/14 07:20:21;;;;;;;18.80;8.90;;;;;;;13.30;64.90;98131.06;108013;1306;22261;-40
2023/04/14 07:22:47;;;;;;;16.90;8.70;;;;;;;13.42;64.33;98126.36;108008;1306;22844;-40
2023/04/14 07:25:12;;;;;;;28.30;9.80;;;;;;;13.55;63.42;98131.79;108016;1306;23158;-41
2023/04/14 07:27:38;;;;;;;16.10;9.30;;;;;;;13.68;63.65;98132.89;108005;1306;22798;-42
2023/04/14 07:30:04;;;;;;;15.90;8.70;;;;;;;13.78;62.86;98132.98;108023;1306;22260;-40
2023/04/14 07:32:29;;;;;;;14.90;8.80;;;;;;;13.84;61.96;98132.41;108030;1306;22122;-39
2023/04/14 07:34:56;;;;;;;14.10;8.30;;;;;;;13.99;62.32;98131.15;107999;1306;22428;-41
2023/04/14 07:37:22;;;;;;;14.80;8.30;;;;;;;14.18;62.10;98133.35;108024;1306;23197;-40
2023/04/14 07:39:47;;;;;;;17.30;8.90;;;;;;;14.38;61.57;98129.79;108032;1306;22217;-40
2023/04/14 07:42:13;;;;;;;12.40;8.10;;;;;;;14.60;61.54;98130.30;108017;1306;22559;-40
2023/04/14 07:44:38;;;;;;;11.50;7.30;;;;;;;14.79;61.03;98127.35;107974;1306;22418;-40
2023/04/14 07:47:03;;;;;;;16.10;7.10;;;;;;;14.97;61.60;98126.39;108000;1306;22948;-40
2023/04/14 07:49:28;;;;;;;16.20;7.40;;;;;;;15.12;60.03;98124.02;108023;1306;22425;-40
2023/04/14 07:51:55;;;;;;;16.40;7.20;;;;;;;15.21;58.53;98123.67;108034;1306;23339;-39
2023/04/14 07:54:21;;;;;;;8.60;6.60;;;;;;;15.29;57.67;98117.66;108017;1306;22396;-41
2023/04/14 07:56:47;;;;;;;13.50;6.20;;;;;;;15.44;58.71;98116.25;108027;1306;22221;-42
2023/04/14 07:59:17;;;;;;;9.00;5.70;;;;;;;15.56;57.77;98118.96;108036;1306;22959;-42
2023/04/14 08:01:43;;;;;;;12.60;6.60;;;;;;;15.64;56.10;98117.22;107359;1306;22921;-42
2023/04/14 08:04:08;;;;;;;9.10;5.90;;;;;;;15.75;56.93;98110.38;108001;1306;22396;-41
2023/04/14 08:06:34;;;;;;;12.80;5.50;;;;;;;15.85;56.05;98110.29;107997;1306;22369;-42
2023/04/14 08:08:59;;;;;;;13.50;6.30;;;;;;;15.97;55.63;98111.65;107997;1306;22238;-41
2023/04/14 08:11:24;;;;;;;20.90;6.40;;;;;;;16.06;55.33;98106.48;108009;1306;22642;-42
2023/04/14 08:13:51;;;;;;;16.70;6.20;;;;;;;16.18;55.27;98106.71;108016;1306;22229;-40
2023/04/14 08:16:17;;;;;;;8.60;6.10;;;;;;;16.27;54.79;98100.36;108034;1306;22952;-42
2023/04/14 08:18:43;;;;;;;20.80;6.60;;;;;;;16.33;54.05;98102.60;108019;1306;22387;-42
2023/04/14 08:21:09;;;;;;;8.60;6.00;;;;;;;16.41;53.17;98101.98;108053;1306;22909;-40
2023/04/14 08:23:34;;;;;;;10.10;5.60;;;;;;;16.46;52.00;98099.94;108021;1306;22343;-40
2023/04/14 08:25:59;;;;;;;10.20;5.20;;;;;;;16.54;51.94;98104.29;108027;1306;22265;-41
2023/04/14 08:28:27;;;;;;;11.80;5.00;;;;;;;16.62;51.41;98102.41;108024;1306;22524;-41
2023/04/14 08:30:53;;;;;;;9.80;4.60;;;;;;;16.69;50.81;98100.17;108029;1306;22310;-42
2023/04/14 08:33:18;;;;;;;16.10;5.40;;;;;;;16.78;51.01;98100.98;108025;1306;22443;-40
2023/04/14 08:35:43;;;;;;;14.10;4.90;;;;;;;16.87;50.46;98101.55;108007;1306;22428;-41
2023/04/14 08:38:09;;;;;;;17.10;5.10;;;;;;;16.85;48.64;98105.79;108006;1306;22156;-41
2023/04/14 08:40:37;;;;;;;8.30;4.80;;;;;;;16.85;48.85;98104.91;108007;1306;22147;-41
2023/04/14 08:43:03;;;;;;;6.10;4.60;;;;;;;16.80;48.58;98108.05;108032;1306;22233;-38
2023/04/14 08:45:30;;;;;;;8.40;5.20;;;;;;;16.83;48.87;98111.73;108011;1306;22304;-42
2023/04/14 08:47:57;;;;;;;9.40;5.80;;;;;;;16.90;48.93;98111.77;107991;1305;22319;-41
2023/04/14 08:50:27;;;;;;;9.40;5.00;;;;;;;17.02;49.19;98109.49;107881;1307;22249;-43
2023/04/14 08:52:55;;;;;;;16.50;5.80;;;;;;;17.24;49.80;98106.71;107938;1299;22266;-40
2023/04/14 08:55:22;;;;;;;10.70;5.30;;;;;;;17.43;48.84;98104.65;108015;1306;23044;-40
2023/04/14 08:57:49;;;;;;;8.20;5.30;;;;;;;17.56;47.42;98109.11;107993;1306;22601;-42
2023/04/14 09:00:15;;;;;;;8.20;5.20;;;;;;;17.68;47.30;98108.63;107868;1307;22251;-41
2023/04/14 09:02:42;;;;;;;15.30;5.60;;;;;;;17.74;47.25;98107.30;107836;1307;22292;-41
2023/04/14 09:05:08;;;;;;;9.50;5.10;;;;;;;17.73;46.19;98109.69;107833;1308;22218;-41
2023/04/14 09:07:35;;;;;;;7.10;5.00;;;;;;;17.73;46.02;98107.23;107855;1306;22607;-41
2023/04/14 09:10:00;;;;;;;12.80;5.10;;;;;;;17.83;47.36;98107.55;108033;1306;22887;-41
2023/04/14 09:12:27;;;;;;;10.60;4.70;;;;;;;17.95;46.70;98106.86;107989;1306;22215;-40
2023/04/14 09:14:53;;;;;;;12.20;4.80;;;;;;;18.05;46.73;98110.45;107982;1306;22214;-43
2023/04/14 09:17:19;;;;;;;8.30;4.70;;;;;;;18.12;45.92;98108.85;107989;1306;22219;-41
2023/04/14 09:19:44;;;;;;;8.00;4.40;;;;;;;18.22;45.65;98112.02;108007;1306;22214;-41
2023/04/14 09:22:10;;;;;;;11.80;4.90;;;;;;;18.41;45.42;98106.61;108003;1306;22387;-44
2023/04/14 09:24:36;;;;;;;10.30;5.10;;;;;;;18.55;44.69;98104.42;108011;1306;22219;-43
2023/04/14 09:27:04;;;;;;;8.50;4.60;;;;;;;18.78;43.88;98110.65;107989;1306;22222;-41
2023/04/14 09:29:31;;;;;;;9.70;5.10;;;;;;;18.93;44.02;98107.27;108004;1306;23580;-42
2023/04/14 09:31:57;;;;;;;13.50;4.90;;;;;;;19.20;42.91;98105.78;107998;1306;22300;-42
2023/04/14 09:34:22;;;;;;;9.80;4.50;;;;;;;19.47;41.73;98097.80;108006;1306;22462;-42
2023/04/14 09:37:01;;;;;;;8.00;4.90;;;;;;;19.93;41.67;98089.36;107954;1305;22921;-42
2023/04/14 09:39:26;;;;;;;7.40;4.80;;;;;;;20.45;41.55;98088.23;107813;1308;22312;-45
2023/04/14 09:41:52;;;;;;;11.30;5.10;;;;;;;20.90;39.24;98088.75;107827;1308;22215;-42
2023/04/14 09:44:18;;;;;;;7.60;4.60;;;;;;;21.40;38.36;98089.96;107873;1308;22112;-44
2023/04/14 09:47:04;;;;;;;12.30;4.30;;;;;;;21.73;37.42;98088.16;107841;1307;22219;-42
2023/04/14 09:49:30;;;;;;;9.80;4.00;;;;;;;21.96;34.46;98084.63;107976;1303;23032;-41
2023/04/14 09:52:08;;;;;;;8.20;4.20;;;;;;;22.32;35.64;98088.85;107993;1306;22285;-41
2023/04/14 09:54:34;;;;;;;8.50;3.70;;;;;;;22.37;35.50;98089.09;107699;1306;22434;-41
2023/04/14 09:57:00;;;;;;;6.70;4.90;;;;;;;22.82;35.10;98084.10;108023;1295;22234;-41
2023/04/14 09:59:36;;;;;;;7.90;4.20;;;;;;;23.29;34.64;98082.64;108000;1302;22223;-44
2023/04/14 10:02:08;;;;;;;10.40;4.40;;;;;;;23.71;33.25;98078.20;108006;1301;22226;-42
2023/04/14 10:04:35;;;;;;;7.20;3.20;;;;;;;24.25;31.71;98080.33;107975;1306;22489;-44
2023/04/14 10:07:01;;;;;;;8.10;3.80;;;;;;;24.53;29.67;98078.69;108024;1306;23122;-42
2023/04/14 10:09:27;;;;;;;6.90;4.00;;;;;;;24.56;31.07;98080.55;107743;1306;22429;-48
2023/04/14 10:12:14;;;;;;;8.50;3.80;;;;;;;24.41;30.34;98075.62;108007;1306;22210;-43
2023/04/14 10:14:40;;;;;;;;;;;;;;;24.42;30.41;98074.17;108060;1306;22436;-46
2023/04/14 10:17:08;;;;;;;14.70;3.90;;;;;;;24.67;30.02;98073.41;107993;1306;22228;-44
2023/04/14 10:19:35;;;;;;;11.50;3.50;;;;;;;25.08;29.65;98076.31;107747;1295;22368;-41
2023/04/14 10:22:04;;;;;;;4.40;3.40;;;;;;;25.11;28.99;98079.80;107996;1305;22251;-42
2023/04/14 10:24:30;;;;;;;5.90;3.70;;;;;;;24.67;28.43;98073.52;108002;1306;22315;-41
2023/04/14 10:26:57;;;;;;;23.20;4.50;;;;;;;24.14;28.78;98069.18;108003;1307;22231;-42
2023/04/14 10:29:23;;;;;;;5.50;3.40;;;;;;;23.71;29.70;98070.73;107994;1302;22216;-42
2023/04/14 10:31:56;;;;;;;7.60;3.80;;;;;;;23.17;29.94;98077.20;107991;1306;22470;-43
2023/04/14 10:34:24;;;;;;;11.80;3.50;;;;;;;23.28;30.77;98077.08;108024;1293;22951;-42
2023/04/14 10:36:50;;;;;;;9.30;3.80;;;;;;;23.44;30.42;98067.23;107965;1305;22256;-43
2023/04/14 10:39:23;;;;;;;15.60;4.90;;;;;;;24.06;30.05;98062.08;108027;1306;22714;-41
2023/04/14 10:41:51;;;;;;;8.00;4.10;;;;;;;24.68;29.89;98068.73;107976;1306;22363;-41
2023/04/14 10:44:23;;;;;;;16.50;4.60;;;;;;;24.94;28.49;98066.86;108032;1306;22189;-44
2023/04/14 10:46:49;;;;;;;5.60;4.00;;;;;;;25.25;28.79;98072.77;108014;1306;22220;-45
2023/04/14 10:49:15;;;;;;;11.40;4.90;;;;;;;25.46;28.67;98071.84;108004;1302;22276;-44
2023/04/14 10:51:42;;;;;;;10.70;4.80;;;;;;;25.46;29.14;98067.90;107976;1292;23131;-43
2023/04/14 10:54:15;;;;;;;;;;;;;;;25.33;29.18;98069.37;107940;1306;22416;-46
2023/04/14 10:56:41;;;;;;;17.90;4.60;;;;;;;25.27;28.77;98066.89;107988;1306;22812;-43
2023/04/14 10:59:08;;;;;;;12.70;5.20;;;;;;;25.19;29.00;98062.67;108031;1306;22252;-40
2023/04/14 11:01:36;;;;;;;11.20;5.20;;;;;;;24.62;29.09;98063.92;108053;1306;22218;-41
2023/04/14 11:04:19;;;;;;;11.60;4.70;;;;;;;24.17;29.66;98058.25;108048;1306;22243;-42
2023/04/14 11:06:47;;;;;;;9.10;4.70;;;;;;;24.19;30.05;98058.38;107985;1302;22237;-47
2023/04/14 11:09:25;;;;;;;18.10;4.80;;;;;;;24.36;30.31;98055.44;108037;1305;22239;-44
2023/04/14 11:11:51;;;;;;;10.00;4.90;;;;;;;24.50;30.53;98052.30;108012;1306;22230;-46
2023/04/14 11:14:24;;;;;;;5.70;4.50;;;;;;;24.63;30.60;98051.43;108031;1306;22339;-43
2023/04/14 11:16:49;;;;;;;11.60;5.40;;;;;;;24.43;30.53;98046.83;108009;1306;22304;-43
2023/04/14 11:19:15;;;;;;;11.20;5.20;;;;;;;24.61;30.44;98041.52;107925;1307;22582;-42